createdAt,value
2023-12-18T00:00:26.840Z,62.34
2023-12-18T00:03:13.991Z,62.09
2023-12-18T00:05:41.191Z,61.89
2023-12-18T00:08:09.285Z,62.30
2023-12-18T00:10:36.323Z,62.84
2023-12-18T00:13:03.066Z,63.36
2023-12-18T00:15:30.184Z,62.68
2023-12-18T00:17:57.275Z,62.68
2023-12-18T00:20:24.338Z,62.78
2023-12-18T00:22:51.187Z,62.28
2023-12-18T00:25:28.365Z,62.21
2023-12-18T00:27:55.776Z,62.64
2023-12-18T00:30:22.973Z,62.82
2023-12-18T00:32:50.267Z,63.30
2023-12-18T00:35:26.120Z,62.86
2023-12-18T00:38:00.347Z,62.32
2023-12-18T00:40:33.731Z,62.42
2023-12-18T00:43:00.647Z,62.55
2023-12-18T00:45:54.995Z,62.38
2023-12-18T00:48:22.202Z,62.48
2023-12-18T00:51:01.087Z,62.35
2023-12-18T00:53:27.891Z,62.06
2023-12-18T00:55:57.815Z,61.70
2023-12-18T00:58:24.612Z,61.90
2023-12-18T01:00:51.436Z,62.82
2023-12-18T01:03:18.397Z,62.36
2023-12-18T01:05:45.368Z,62.33
2023-12-18T01:08:13.577Z,61.93
2023-12-18T01:10:40.473Z,61.52
2023-12-18T01:13:07.167Z,61.27
2023-12-18T01:15:34.103Z,61.10
2023-12-18T01:18:01.169Z,60.97
2023-12-18T01:20:28.445Z,60.60
2023-12-18T01:23:02.172Z,61.05
2023-12-18T01:25:32.625Z,61.40
2023-12-18T01:28:00.419Z,61.11
2023-12-18T01:30:27.507Z,60.76
2023-12-18T01:32:54.623Z,60.89
2023-12-18T01:35:21.590Z,60.77
2023-12-18T01:37:57.997Z,60.96
2023-12-18T01:40:25.123Z,60.53
2023-12-18T01:42:52.216Z,60.17
2023-12-18T01:45:21.620Z,60.52
2023-12-18T01:47:48.974Z,60.88
2023-12-18T01:50:16.336Z,60.75
2023-12-18T01:52:43.618Z,61.43
2023-12-18T01:55:11.006Z,60.91
2023-12-18T01:57:38.344Z,61.18
2023-12-18T02:00:13.332Z,60.38
2023-12-18T02:02:40.193Z,61.10
2023-12-18T02:05:07.607Z,61.19
2023-12-18T02:07:35.512Z,61.25
2023-12-18T02:10:03.950Z,61.39
2023-12-18T02:12:31.062Z,61.20
2023-12-18T02:14:58.726Z,61.44
2023-12-18T02:17:28.097Z,61.59
2023-12-18T02:20:08.634Z,61.31
2023-12-18T02:22:56.065Z,61.47
2023-12-18T02:25:22.953Z,61.88
2023-12-18T02:28:00.093Z,61.17
2023-12-18T02:30:27.047Z,60.64
2023-12-18T02:32:53.971Z,60.50
2023-12-18T02:35:30.277Z,61.02
2023-12-18T02:37:59.829Z,61.10
2023-12-18T02:40:26.871Z,61.04
2023-12-18T02:42:53.993Z,61.00
2023-12-18T02:45:21.261Z,60.67
2023-12-18T02:47:48.296Z,61.05
2023-12-18T02:50:15.971Z,60.65
2023-12-18T02:52:43.390Z,60.33
2023-12-18T02:55:11.838Z,60.60
2023-12-18T02:57:39.397Z,60.40
2023-12-18T03:00:08.074Z,60.08
2023-12-18T03:02:35.214Z,60.30
2023-12-18T03:05:02.246Z,59.04
2023-12-18T03:07:29.237Z,60.05
2023-12-18T03:09:56.191Z,62.33
2023-12-18T03:12:30.760Z,63.56
2023-12-18T03:14:57.766Z,63.08
2023-12-18T03:17:24.625Z,62.08
2023-12-18T03:19:52.131Z,61.42
2023-12-18T03:22:19.177Z,60.94
2023-12-18T03:24:45.915Z,60.85
2023-12-18T03:27:12.944Z,60.81
2023-12-18T03:29:40.132Z,60.81
2023-12-18T03:32:07.085Z,60.51
2023-12-18T03:34:34.044Z,60.16
2023-12-18T03:37:01.161Z,59.79
2023-12-18T03:39:28.169Z,59.82
2023-12-18T03:41:55.431Z,60.21
2023-12-18T03:44:22.433Z,59.90
2023-12-18T03:46:52.914Z,59.80
2023-12-18T03:49:20.227Z,59.18
2023-12-18T03:51:54.494Z,60.57
2023-12-18T03:54:21.618Z,62.82
2023-12-18T03:56:48.709Z,63.66
2023-12-18T03:59:16.005Z,62.42
2023-12-18T04:01:43.179Z,60.73
2023-12-18T04:04:11.282Z,59.30
2023-12-18T04:06:38.283Z,58.93
2023-12-18T04:09:05.325Z,60.10
2023-12-18T04:11:32.352Z,63.53
2023-12-18T04:13:59.163Z,64.23
2023-12-18T04:16:25.926Z,62.78
2023-12-18T04:18:53.148Z,61.70
2023-12-18T04:21:20.853Z,61.19
2023-12-18T04:23:48.044Z,60.54
2023-12-18T04:26:14.808Z,59.28
2023-12-18T04:28:41.547Z,59.91
2023-12-18T04:31:08.622Z,62.33
2023-12-18T04:33:41.780Z,64.70
2023-12-18T04:36:08.882Z,63.69
2023-12-18T04:38:35.763Z,61.84
2023-12-18T04:41:05.719Z,60.75
2023-12-18T04:43:34.193Z,60.41
2023-12-18T04:46:01.466Z,60.72
2023-12-18T04:48:28.600Z,60.78
2023-12-18T04:50:55.652Z,60.33
2023-12-18T04:53:22.792Z,60.14
2023-12-18T04:55:52.251Z,59.33
2023-12-18T04:58:19.233Z,59.24
2023-12-18T05:00:46.462Z,62.00
2023-12-18T05:03:13.778Z,63.18
2023-12-18T05:05:43.765Z,62.11
2023-12-18T05:08:10.626Z,60.46
2023-12-18T05:10:37.420Z,59.50
2023-12-18T05:13:04.516Z,57.99
2023-12-18T05:15:31.528Z,58.31
2023-12-18T05:17:59.319Z,59.27
2023-12-18T05:20:27.840Z,63.35
2023-12-18T05:22:56.160Z,65.04
2023-12-18T05:25:24.444Z,63.17
2023-12-18T05:27:52.813Z,61.84
2023-12-18T05:30:22.544Z,60.70
2023-12-18T05:32:51.371Z,59.82
2023-12-18T05:35:19.755Z,58.71
2023-12-18T05:37:48.057Z,60.72
2023-12-18T05:40:16.579Z,60.82
2023-12-18T05:42:45.195Z,64.28
2023-12-18T05:45:16.962Z,64.47
2023-12-18T05:47:45.378Z,63.12
2023-12-18T05:50:13.750Z,61.62
2023-12-18T05:52:45.461Z,60.87
2023-12-18T05:55:13.879Z,61.02
2023-12-18T05:57:42.828Z,60.49
2023-12-18T06:00:12.127Z,60.42
2023-12-18T06:02:41.100Z,59.47
2023-12-18T06:05:09.647Z,57.63
2023-12-18T06:07:41.048Z,58.62
2023-12-18T06:10:13.110Z,59.89
2023-12-18T06:12:42.210Z,63.60
2023-12-18T06:15:13.329Z,66.10
2023-12-18T06:17:41.767Z,64.08
2023-12-18T06:20:19.571Z,62.78
2023-12-18T06:23:11.253Z,61.94
2023-12-18T06:25:42.808Z,61.54
2023-12-18T06:28:11.554Z,60.68
2023-12-18T06:30:40.138Z,60.20
2023-12-18T06:33:09.104Z,59.81
2023-12-18T06:35:37.604Z,58.49
2023-12-18T06:38:08.555Z,59.78
2023-12-18T06:40:36.744Z,62.44
2023-12-18T06:43:05.181Z,63.65
2023-12-18T06:45:39.518Z,62.33
2023-12-18T06:48:17.577Z,61.25
2023-12-18T06:50:45.950Z,60.25
2023-12-18T06:53:14.311Z,59.84
2023-12-18T06:55:42.692Z,60.15
2023-12-18T06:58:11.006Z,59.84
2023-12-18T07:00:41.325Z,59.69
2023-12-18T07:03:10.752Z,59.26
2023-12-18T07:05:39.361Z,59.13
2023-12-18T07:08:08.176Z,61.83
2023-12-18T07:10:36.476Z,63.16
2023-12-18T07:13:07.820Z,61.88
2023-12-18T07:15:36.259Z,60.84
2023-12-18T07:18:05.693Z,60.09
2023-12-18T07:20:34.293Z,59.09
2023-12-18T07:23:02.833Z,57.63
2023-12-18T07:25:31.480Z,59.60
2023-12-18T07:27:59.895Z,64.26
2023-12-18T07:30:28.346Z,63.14
2023-12-18T07:33:05.708Z,61.36
2023-12-18T07:35:34.189Z,60.51
2023-12-18T07:38:02.509Z,59.95
2023-12-18T07:40:30.716Z,59.31
2023-12-18T07:42:59.032Z,59.37
2023-12-18T07:45:27.387Z,60.87
2023-12-18T07:47:58.589Z,63.35
2023-12-18T07:50:36.140Z,62.03
2023-12-18T07:53:05.330Z,60.71
2023-12-18T07:55:33.928Z,59.88
2023-12-18T07:58:04.690Z,59.24
2023-12-18T08:00:32.951Z,59.82
2023-12-18T08:03:03.489Z,59.86
2023-12-18T08:05:34.345Z,63.66
2023-12-18T08:08:11.551Z,63.56
2023-12-18T08:10:39.852Z,61.52
2023-12-18T08:13:08.221Z,60.12
2023-12-18T08:15:36.513Z,59.85
2023-12-18T08:18:05.329Z,58.91
2023-12-18T08:20:33.542Z,59.96
2023-12-18T08:23:01.980Z,61.62
2023-12-18T08:25:30.623Z,63.97
2023-12-18T08:27:58.962Z,63.20
2023-12-18T08:30:30.575Z,61.46
2023-12-18T08:32:58.877Z,60.68
2023-12-18T08:35:27.218Z,59.64
2023-12-18T08:37:55.989Z,56.89
2023-12-18T08:40:24.554Z,58.87
2023-12-18T08:42:53.548Z,60.15
2023-12-18T08:45:21.903Z,61.99
2023-12-18T08:47:50.292Z,64.18
2023-12-18T08:50:18.583Z,63.57
2023-12-18T08:52:47.118Z,62.03
2023-12-18T08:55:24.610Z,60.82
2023-12-18T08:57:53.041Z,60.93
2023-12-18T09:00:21.601Z,58.80
2023-12-18T09:02:50.012Z,58.34
2023-12-18T09:05:18.978Z,60.98
2023-12-18T09:07:50.557Z,63.19
2023-12-18T09:10:23.599Z,62.73
2023-12-18T09:12:55.060Z,61.26
2023-12-18T09:15:24.050Z,60.18
2023-12-18T09:17:52.346Z,59.17
2023-12-18T09:20:20.535Z,59.34
2023-12-18T09:22:52.699Z,62.10
2023-12-18T09:25:21.001Z,64.07
2023-12-18T09:27:52.711Z,62.77
2023-12-18T09:30:21.374Z,61.84
2023-12-18T09:32:50.052Z,61.28
2023-12-18T09:35:18.510Z,60.34
2023-12-18T09:37:47.217Z,59.89
2023-12-18T09:40:15.507Z,59.45
2023-12-18T09:42:52.712Z,59.95
2023-12-18T09:45:35.932Z,61.81
2023-12-18T09:48:06.661Z,64.94
2023-12-18T09:50:35.224Z,63.81
2023-12-18T09:53:08.898Z,62.37
2023-12-18T09:55:37.489Z,61.42
2023-12-18T09:58:06.014Z,60.96
2023-12-18T10:00:43.588Z,60.64
2023-12-18T10:03:14.913Z,60.38
2023-12-18T10:05:44.814Z,60.73
2023-12-18T10:08:14.030Z,60.64
2023-12-18T10:10:44.376Z,60.44
2023-12-18T10:13:13.558Z,60.45
2023-12-18T10:15:45.275Z,60.17
2023-12-18T10:18:16.461Z,60.36
2023-12-18T10:20:49.625Z,60.43
2023-12-18T10:23:38.126Z,60.03
2023-12-18T10:26:06.828Z,59.80
2023-12-18T10:28:35.147Z,60.04
2023-12-18T10:31:05.533Z,59.81
2023-12-18T10:33:34.131Z,59.77
2023-12-18T10:36:02.555Z,59.37
2023-12-18T10:38:31.696Z,58.32
2023-12-18T10:41:26.740Z,59.59
2023-12-18T10:43:55.031Z,63.37
2023-12-18T10:46:26.402Z,64.39
2023-12-18T10:48:54.711Z,62.65
2023-12-18T10:51:26.103Z,61.11
2023-12-18T10:53:54.428Z,60.45
2023-12-18T10:56:25.416Z,60.23
2023-12-18T10:58:55.360Z,59.33
2023-12-18T11:01:24.777Z,59.57
2023-12-18T11:04:14.717Z,61.62
2023-12-18T11:06:43.061Z,63.71
2023-12-18T11:09:11.380Z,61.69
2023-12-18T11:11:39.876Z,60.71
2023-12-18T11:14:30.591Z,60.02
2023-12-18T11:17:02.850Z,59.83
2023-12-18T11:19:43.473Z,59.90
2023-12-18T11:22:12.068Z,59.37
2023-12-18T11:24:43.886Z,58.35
2023-12-18T11:27:17.909Z,61.18
2023-12-18T11:29:49.748Z,63.64
2023-12-18T11:32:47.232Z,63.89
2023-12-18T11:35:16.943Z,61.02
2023-12-18T11:37:50.500Z,60.45
2023-12-18T11:40:31.856Z,59.63
2023-12-18T11:43:00.420Z,59.77
2023-12-18T11:45:29.035Z,59.46
2023-12-18T11:47:58.594Z,57.28
2023-12-18T11:50:35.255Z,58.36
2023-12-18T11:53:32.830Z,59.17
2023-12-18T11:56:12.381Z,63.84
2023-12-18T11:58:45.606Z,64.33
2023-12-18T12:01:14.530Z,62.74
2023-12-18T12:03:43.314Z,61.50
2023-12-18T12:06:20.385Z,60.08
2023-12-18T12:08:49.119Z,59.44
2023-12-18T12:11:18.512Z,57.73
2023-12-18T12:13:48.514Z,58.10
2023-12-18T12:16:20.720Z,58.16
2023-12-18T12:18:52.456Z,60.76
2023-12-18T12:21:22.511Z,64.46
2023-12-18T12:23:52.016Z,64.50
2023-12-18T12:26:22.339Z,62.30
2023-12-18T12:28:50.685Z,60.75
2023-12-18T12:31:20.207Z,59.89
2023-12-18T12:33:52.610Z,58.24
2023-12-18T12:36:25.480Z,58.15
2023-12-18T12:39:08.345Z,58.33
2023-12-18T12:41:36.630Z,58.03
2023-12-18T12:44:04.985Z,58.89
2023-12-18T12:46:36.255Z,62.70
2023-12-18T12:49:12.174Z,66.80
2023-12-18T12:51:40.507Z,66.01
2023-12-18T12:54:12.894Z,64.12
2023-12-18T12:56:51.750Z,62.31
2023-12-18T12:59:20.113Z,61.05
2023-12-18T13:01:49.860Z,60.20
2023-12-18T13:04:21.575Z,58.71
2023-12-18T13:06:52.704Z,57.16
2023-12-18T13:09:21.197Z,58.15
2023-12-18T13:11:49.949Z,58.42
2023-12-18T13:14:21.906Z,59.87
2023-12-18T13:16:50.539Z,59.44
2023-12-18T13:19:18.829Z,59.49
2023-12-18T13:21:48.799Z,60.99
2023-12-18T13:24:18.083Z,65.91
2023-12-18T13:26:46.653Z,66.62
2023-12-18T13:29:15.818Z,66.51
2023-12-18T13:31:44.542Z,65.32
2023-12-18T13:34:14.706Z,63.78
2023-12-18T13:36:43.108Z,62.51
2023-12-18T13:39:11.791Z,61.40
2023-12-18T13:41:40.127Z,60.62
2023-12-18T13:44:08.389Z,59.75
2023-12-18T13:46:36.902Z,58.67
2023-12-18T13:49:05.693Z,57.34
2023-12-18T13:51:43.754Z,57.91
2023-12-18T13:54:12.214Z,59.86
2023-12-18T13:56:42.152Z,60.49
2023-12-18T13:59:10.309Z,61.39
2023-12-18T14:01:39.054Z,60.83
2023-12-18T14:04:08.204Z,62.39
2023-12-18T14:06:36.708Z,68.00
2023-12-18T14:09:05.911Z,68.87
2023-12-18T14:11:34.350Z,67.58
2023-12-18T14:14:02.758Z,65.83
2023-12-18T14:16:31.075Z,64.82
2023-12-18T14:19:02.683Z,63.43
2023-12-18T14:21:33.182Z,62.04
2023-12-18T14:24:25.068Z,61.75
2023-12-18T14:27:05.720Z,61.70
2023-12-18T14:29:34.099Z,60.93
2023-12-18T14:32:02.535Z,61.13
2023-12-18T14:34:31.159Z,60.72
2023-12-18T14:37:01.450Z,60.52
2023-12-18T14:39:29.826Z,60.42
2023-12-18T14:42:07.216Z,60.82
2023-12-18T14:44:36.263Z,61.00
2023-12-18T14:47:04.626Z,61.19
2023-12-18T14:49:32.972Z,61.60
2023-12-18T14:52:01.537Z,61.46
2023-12-18T14:54:30.231Z,61.97
2023-12-18T14:56:58.638Z,63.04
2023-12-18T14:59:27.015Z,62.92
2023-12-18T15:02:00.657Z,62.16
2023-12-18T15:04:30.591Z,62.27
2023-12-18T15:06:59.825Z,62.81
2023-12-18T15:09:29.719Z,62.68
2023-12-18T15:11:58.603Z,62.83
2023-12-18T15:14:26.899Z,62.91
2023-12-18T15:17:05.105Z,63.44
2023-12-18T15:19:37.130Z,62.83
2023-12-18T15:22:05.924Z,62.74
2023-12-18T15:24:35.574Z,63.44
2023-12-18T15:27:04.491Z,62.91
2023-12-18T15:29:32.893Z,63.74
2023-12-18T15:32:01.765Z,64.28
2023-12-18T15:34:30.212Z,63.79
2023-12-18T15:37:01.671Z,62.85
2023-12-18T15:39:30.586Z,63.60
2023-12-18T15:41:58.866Z,63.00
2023-12-18T15:44:27.478Z,62.80
2023-12-18T15:46:56.378Z,63.75
2023-12-18T15:49:27.763Z,63.49
2023-12-18T15:51:57.044Z,63.38
2023-12-18T15:54:25.513Z,63.77
2023-12-18T15:56:53.955Z,63.60
2023-12-18T15:59:23.145Z,63.04
2023-12-18T16:01:51.606Z,63.71
2023-12-18T16:04:20.170Z,64.34
2023-12-18T16:06:48.637Z,64.46
2023-12-18T16:09:16.933Z,63.90
2023-12-18T16:11:45.457Z,64.07
2023-12-18T16:14:13.719Z,63.73
2023-12-18T16:16:44.679Z,64.15
2023-12-18T16:19:13.087Z,64.37
2023-12-18T16:21:41.346Z,64.08
2023-12-18T16:24:10.078Z,64.45
2023-12-18T16:26:41.332Z,64.56
2023-12-18T16:29:10.340Z,64.70
2023-12-18T16:31:39.060Z,65.06
2023-12-18T16:34:07.543Z,65.24
2023-12-18T16:36:38.990Z,64.93
2023-12-18T16:39:07.559Z,64.89
2023-12-18T16:41:38.893Z,64.96
2023-12-18T16:44:07.208Z,65.30
2023-12-18T16:46:42.959Z,65.42
2023-12-18T16:49:14.854Z,65.38
2023-12-18T16:51:46.172Z,65.76
2023-12-18T16:54:14.658Z,66.22
2023-12-18T16:56:42.994Z,66.22
2023-12-18T16:59:11.332Z,66.43
2023-12-18T17:01:39.615Z,66.83
2023-12-18T17:04:08.124Z,66.57
2023-12-18T17:06:36.905Z,66.66
2023-12-18T17:09:08.438Z,66.96
2023-12-18T17:11:36.940Z,66.65
2023-12-18T17:14:06.926Z,66.29
2023-12-18T17:16:38.280Z,66.71
2023-12-18T17:19:06.912Z,66.82
2023-12-18T17:21:36.204Z,66.54
2023-12-18T17:24:08.691Z,66.59
2023-12-18T17:26:39.505Z,66.79
2023-12-18T17:29:07.671Z,66.58
2023-12-18T17:31:38.921Z,66.67
2023-12-18T17:34:07.339Z,66.18
2023-12-18T17:36:35.746Z,66.17
2023-12-18T17:39:06.839Z,66.10
2023-12-18T17:41:35.757Z,65.87
2023-12-18T17:44:11.735Z,66.36
2023-12-18T17:46:40.197Z,65.91
2023-12-18T17:49:08.501Z,65.80
2023-12-18T17:51:37.693Z,66.07
2023-12-18T17:54:26.470Z,66.40
2023-12-18T17:56:54.699Z,66.66
2023-12-18T17:59:28.795Z,66.29
2023-12-18T18:01:57.346Z,66.57
2023-12-18T18:04:25.641Z,66.34
2023-12-18T18:07:17.759Z,66.38
2023-12-18T18:09:46.139Z,66.64
2023-12-18T18:12:14.912Z,66.94
2023-12-18T18:14:43.776Z,66.52
2023-12-18T18:17:13.695Z,66.62
2023-12-18T18:19:44.411Z,66.42
2023-12-18T18:22:15.207Z,66.52
2023-12-18T18:24:47.438Z,66.41
2023-12-18T18:27:19.288Z,66.82
2023-12-18T18:29:49.965Z,66.42
2023-12-18T18:32:18.318Z,66.69
2023-12-18T18:34:50.138Z,66.31
2023-12-18T18:37:41.970Z,66.44
2023-12-18T18:40:15.155Z,66.42
2023-12-18T18:42:43.930Z,66.43
2023-12-18T18:45:12.391Z,66.23
2023-12-18T18:47:40.964Z,66.36
2023-12-18T18:50:11.421Z,66.65
2023-12-18T18:52:40.002Z,66.36
2023-12-18T18:55:08.626Z,66.39
2023-12-18T18:57:47.342Z,66.46
2023-12-18T19:00:17.701Z,66.50
2023-12-18T19:02:45.973Z,66.22
2023-12-18T19:05:25.354Z,66.23
2023-12-18T19:07:53.771Z,66.36
2023-12-18T19:10:22.085Z,66.02
2023-12-18T19:12:59.163Z,66.02
2023-12-18T19:15:28.547Z,66.22
2023-12-18T19:17:56.942Z,66.28
2023-12-18T19:20:29.064Z,66.54
2023-12-18T19:23:00.218Z,66.38
2023-12-18T19:25:28.678Z,66.18
2023-12-18T19:27:57.677Z,66.27
2023-12-18T19:30:26.184Z,66.73
2023-12-18T19:32:57.247Z,66.58
2023-12-18T19:35:26.670Z,66.87
2023-12-18T19:37:55.010Z,66.45
2023-12-18T19:40:26.239Z,66.43
2023-12-18T19:42:54.867Z,66.59
2023-12-18T19:45:23.518Z,66.48
2023-12-18T19:50:30.683Z,66.32
2023-12-18T19:52:59.376Z,66.46
2023-12-18T19:55:27.881Z,66.29
2023-12-18T19:57:56.335Z,66.19
2023-12-18T20:00:34.226Z,66.20
2023-12-18T20:03:03.348Z,66.11
2023-12-18T20:05:52.320Z,66.40
2023-12-18T20:08:20.729Z,66.07
2023-12-18T20:10:49.740Z,66.37
2023-12-18T20:13:17.905Z,67.13
2023-12-18T20:15:46.321Z,66.96
2023-12-18T20:18:18.624Z,66.71
2023-12-18T20:20:50.032Z,66.76
2023-12-18T20:23:18.533Z,66.68
2023-12-18T20:25:47.166Z,66.86
2023-12-18T20:28:18.162Z,66.82
2023-12-18T20:30:48.984Z,67.01
2023-12-18T20:33:17.676Z,67.05
2023-12-18T20:35:47.882Z,67.10
2023-12-18T20:38:18.296Z,67.42
2023-12-18T20:40:47.683Z,67.53
2023-12-18T20:43:18.403Z,67.58
2023-12-18T20:45:59.160Z,67.47
2023-12-18T20:48:48.085Z,67.74
2023-12-18T20:51:16.381Z,68.95
2023-12-18T20:53:52.390Z,68.62
2023-12-18T20:56:23.750Z,68.38
2023-12-18T20:58:52.084Z,68.17
2023-12-18T21:01:20.587Z,68.15
2023-12-18T21:03:49.022Z,67.96
2023-12-18T21:06:17.585Z,67.93
2023-12-18T21:08:46.767Z,67.62
2023-12-18T21:11:15.966Z,67.60
2023-12-18T21:13:46.070Z,67.35
2023-12-18T21:16:15.809Z,66.90
2023-12-18T21:18:44.368Z,66.32
2023-12-18T21:21:15.861Z,66.05
2023-12-18T21:23:44.440Z,65.70
2023-12-18T21:26:13.166Z,65.37
2023-12-18T21:28:58.323Z,65.24
2023-12-18T21:31:29.409Z,64.90
2023-12-18T21:33:57.748Z,64.38
2023-12-18T21:36:26.232Z,64.01
2023-12-18T21:38:57.593Z,63.78
2023-12-18T21:41:26.094Z,62.72
2023-12-18T21:43:54.979Z,61.90
2023-12-18T21:46:23.410Z,61.51
2023-12-18T21:48:52.762Z,60.52
2023-12-18T21:51:44.218Z,60.95
2023-12-18T21:54:13.083Z,61.79
2023-12-18T21:56:41.684Z,60.61
2023-12-18T21:59:10.041Z,60.02
2023-12-18T22:01:40.723Z,60.11
2023-12-18T22:04:13.735Z,60.19
2023-12-18T22:07:01.417Z,60.38
2023-12-18T22:09:30.147Z,60.58
2023-12-18T22:11:58.475Z,61.15
2023-12-18T22:14:27.047Z,61.12
2023-12-18T22:16:58.570Z,61.01
2023-12-18T22:19:27.020Z,61.55
2023-12-18T22:21:55.977Z,62.12
2023-12-18T22:24:24.578Z,62.11
2023-12-18T22:26:53.674Z,61.55
2023-12-18T22:29:22.025Z,60.55
2023-12-18T22:31:50.664Z,60.42
2023-12-18T22:34:22.025Z,60.62
2023-12-18T22:37:10.723Z,60.91
2023-12-18T22:39:40.111Z,61.26
2023-12-18T22:42:14.411Z,60.09
2023-12-18T22:44:46.115Z,61.94
2023-12-18T22:47:14.858Z,61.11
2023-12-18T22:49:44.950Z,60.38
2023-12-18T22:52:13.448Z,61.44
2023-12-18T22:54:44.799Z,60.80
2023-12-18T22:57:13.332Z,60.23
2023-12-18T22:59:41.634Z,59.89
2023-12-18T23:02:10.134Z,60.93
2023-12-18T23:04:38.667Z,63.37
2023-12-18T23:07:07.079Z,63.66
2023-12-18T23:09:59.013Z,61.91
2023-12-18T23:12:27.359Z,63.30
2023-12-18T23:14:55.650Z,62.44
2023-12-18T23:17:23.989Z,61.72
2023-12-18T23:19:52.364Z,61.59
2023-12-18T23:22:21.014Z,61.14
2023-12-18T23:24:49.271Z,60.11
2023-12-18T23:27:18.127Z,59.47
2023-12-18T23:29:46.690Z,58.92
2023-12-18T23:32:15.604Z,60.16
2023-12-18T23:34:44.119Z,64.18
2023-12-18T23:37:12.681Z,65.60
2023-12-18T23:39:40.926Z,64.67
2023-12-18T23:42:18.169Z,64.62
2023-12-18T23:44:55.488Z,63.47
2023-12-18T23:47:26.135Z,63.05
2023-12-18T23:49:54.609Z,61.95
2023-12-18T23:52:22.813Z,61.96
2023-12-18T23:54:51.010Z,61.56
2023-12-18T23:57:19.401Z,60.72
2023-12-18T23:59:47.759Z,59.17
